createdAt,value
2023-03-27T00:00:59.704Z,95804.38
2023-03-27T00:02:01.753Z,95808.72
2023-03-27T00:03:03.497Z,95804.91
2023-03-27T00:04:05.598Z,95809.63
2023-03-27T00:05:08.076Z,95806.66
2023-03-27T00:06:17.042Z,95810.63
2023-03-27T00:07:20.027Z,95803.84
2023-03-27T00:08:21.566Z,95807.38
2023-03-27T00:09:23.135Z,95803.19
2023-03-27T00:10:24.853Z,95808.63
2023-03-27T00:11:26.660Z,95807.16
2023-03-27T00:12:28.261Z,95807.28
2023-03-27T00:13:30.580Z,95818.13
2023-03-27T00:14:32.365Z,95810.38
2023-03-27T00:15:36.619Z,95812.53
2023-03-27T00:16:38.209Z,95809.22
2023-03-27T00:17:39.846Z,95808.97
2023-03-27T00:18:41.586Z,95804.31
2023-03-27T00:19:43.901Z,95815.28
2023-03-27T00:20:45.617Z,95812.69
2023-03-27T00:21:47.866Z,95811.84
2023-03-27T00:22:55.452Z,95806.03
2023-03-27T00:23:57.119Z,95804.38
2023-03-27T00:24:58.663Z,95804.31
2023-03-27T00:26:00.478Z,95805.16
2023-03-27T00:27:02.563Z,95793.53
2023-03-27T00:28:04.324Z,95785.22
2023-03-27T00:29:06.956Z,95783.81
2023-03-27T00:30:09.166Z,95790.00
2023-03-27T00:31:15.644Z,95791.63
2023-03-27T00:32:17.153Z,95781.38
2023-03-27T00:33:19.096Z,95783.41
2023-03-27T00:34:20.816Z,95782.63
2023-03-27T00:35:23.908Z,95781.91
2023-03-27T00:36:26.018Z,95780.19
2023-03-27T00:37:27.546Z,95778.69
2023-03-27T00:38:29.675Z,95776.91
2023-03-27T00:39:31.276Z,95773.97
2023-03-27T00:40:32.910Z,95774.84
2023-03-27T00:41:34.526Z,95774.09
2023-03-27T00:42:36.250Z,95779.50
2023-03-27T00:43:43.577Z,95774.56
2023-03-27T00:44:45.203Z,95770.03
2023-03-27T00:45:48.144Z,95777.78
2023-03-27T00:46:49.962Z,95767.50
2023-03-27T00:47:56.677Z,95773.03
2023-03-27T00:49:01.974Z,95770.03
2023-03-27T00:50:10.504Z,95761.56
2023-03-27T00:51:12.482Z,95761.56
2023-03-27T00:52:16.810Z,95759.00
2023-03-27T00:53:23.092Z,95759.41
2023-03-27T00:54:29.983Z,95748.00
2023-03-27T00:55:34.201Z,95746.50
2023-03-27T00:56:38.706Z,95744.94
2023-03-27T00:57:43.342Z,95747.94
2023-03-27T00:58:49.556Z,95745.69
2023-03-27T00:59:54.327Z,95757.16
2023-03-27T01:00:57.317Z,95753.00
2023-03-27T01:02:00.386Z,95744.94
2023-03-27T01:03:05.804Z,95750.22
2023-03-27T01:04:09.145Z,95746.22
2023-03-27T01:05:11.530Z,95745.13
2023-03-27T01:06:16.861Z,95737.97
2023-03-27T01:07:19.835Z,95733.41
2023-03-27T01:08:22.301Z,95728.06
2023-03-27T01:09:27.232Z,95732.59
2023-03-27T01:10:40.749Z,95731.06
2023-03-27T01:12:07.783Z,95729.59
2023-03-27T01:13:12.353Z,95723.47
2023-03-27T01:14:35.689Z,95723.91
2023-03-27T01:15:50.294Z,95721.94
2023-03-27T01:16:57.735Z,95719.28
2023-03-27T01:18:38.288Z,95722.88
2023-03-27T01:19:42.880Z,95711.38
2023-03-27T01:21:17.950Z,95714.03
2023-03-27T01:22:38.010Z,95707.97
2023-03-27T01:24:08.310Z,95707.47
2023-03-27T01:25:18.860Z,95701.69
2023-03-27T01:26:35.954Z,95699.00
2023-03-27T01:28:22.941Z,95691.31
2023-03-27T01:29:30.438Z,95693.63
2023-03-27T01:30:53.628Z,95689.75
2023-03-27T01:32:05.268Z,95688.69
2023-03-27T01:33:57.960Z,95685.25
2023-03-27T01:35:08.630Z,95677.56
2023-03-27T01:36:10.124Z,95683.72
2023-03-27T01:37:53.115Z,95679.91
2023-03-27T01:39:27.393Z,95680.31
2023-03-27T01:40:39.179Z,95678.44
2023-03-27T01:42:05.135Z,95684.94
2023-03-27T01:43:18.227Z,95680.00
2023-03-27T01:44:26.893Z,95684.59
2023-03-27T01:45:53.217Z,95681.94
2023-03-27T01:47:02.029Z,95687.75
2023-03-27T01:48:03.554Z,95687.91
2023-03-27T01:49:10.907Z,95693.72
2023-03-27T01:50:24.716Z,95690.72
2023-03-27T01:51:36.135Z,95698.88
2023-03-27T01:52:42.081Z,95694.72
2023-03-27T01:53:52.256Z,95694.75
2023-03-27T01:54:58.414Z,95695.19
2023-03-27T01:56:06.324Z,95692.16
2023-03-27T01:57:17.674Z,95690.69
2023-03-27T01:58:23.361Z,95686.13
2023-03-27T01:59:29.161Z,95687.66
2023-03-27T02:00:50.860Z,95679.22
2023-03-27T02:02:00.854Z,95681.53
2023-03-27T02:03:19.907Z,95680.63
2023-03-27T02:04:28.919Z,95675.09
2023-03-27T02:05:36.614Z,95672.00
2023-03-27T02:06:44.552Z,95662.41
2023-03-27T02:07:57.427Z,95664.94
2023-03-27T02:09:05.213Z,95680.13
2023-03-27T02:10:18.019Z,95677.47
2023-03-27T02:11:22.933Z,95681.69
2023-03-27T02:12:30.970Z,95677.38
2023-03-27T02:13:40.874Z,95672.66
2023-03-27T02:14:49.366Z,95668.41
2023-03-27T02:15:52.311Z,95672.59
2023-03-27T02:17:00.775Z,95671.75
2023-03-27T02:18:10.045Z,95659.88
2023-03-27T02:19:34.734Z,95663.75
2023-03-27T02:20:38.711Z,95664.47
2023-03-27T02:21:40.388Z,95655.31
2023-03-27T02:22:43.816Z,95654.19
2023-03-27T02:23:45.590Z,95652.25
2023-03-27T02:24:49.039Z,95651.50
2023-03-27T02:25:51.863Z,95648.44
2023-03-27T02:27:09.240Z,95644.59
2023-03-27T02:28:40.741Z,95642.75
2023-03-27T02:29:58.940Z,95640.84
2023-03-27T02:31:32.584Z,95635.97
2023-03-27T02:32:47.938Z,95641.75
2023-03-27T02:34:12.013Z,95629.84
2023-03-27T02:35:29.513Z,95624.88
2023-03-27T02:37:05.142Z,95623.75
2023-03-27T02:38:20.481Z,95620.28
2023-03-27T02:39:35.260Z,95618.72
2023-03-27T02:41:04.538Z,95613.72
2023-03-27T02:42:16.118Z,95612.53
2023-03-27T02:43:37.881Z,95612.94
2023-03-27T02:45:00.034Z,95611.03
2023-03-27T02:46:35.967Z,95617.16
2023-03-27T02:47:47.728Z,95623.72
2023-03-27T02:48:57.105Z,95617.97
2023-03-27T02:50:06.176Z,95621.53
2023-03-27T02:51:25.552Z,95606.59
2023-03-27T02:52:34.218Z,95610.47
2023-03-27T02:53:42.845Z,95602.78
2023-03-27T02:54:50.856Z,95602.47
2023-03-27T02:55:57.239Z,95593.69
2023-03-27T02:57:05.252Z,95596.00
2023-03-27T02:58:12.101Z,95583.28
2023-03-27T02:59:22.515Z,95579.09
2023-03-27T03:00:28.069Z,95587.53
2023-03-27T03:01:32.562Z,95579.06
2023-03-27T03:02:34.662Z,95572.56
2023-03-27T03:03:42.642Z,95570.22
2023-03-27T03:04:50.461Z,95581.34
2023-03-27T03:05:52.119Z,95575.16
2023-03-27T03:06:54.228Z,95578.25
2023-03-27T03:07:58.165Z,95580.59
2023-03-27T03:09:03.134Z,95562.50
2023-03-27T03:10:09.667Z,95566.72
2023-03-27T03:11:14.336Z,95558.31
2023-03-27T03:12:16.152Z,95562.56
2023-03-27T03:13:18.022Z,95559.81
2023-03-27T03:14:24.562Z,95565.19
2023-03-27T03:15:26.098Z,95557.56
2023-03-27T03:16:29.240Z,95561.38
2023-03-27T03:17:30.959Z,95562.16
2023-03-27T03:18:32.537Z,95568.66
2023-03-27T03:19:34.115Z,95552.53
2023-03-27T03:20:35.724Z,95554.50
2023-03-27T03:21:37.661Z,95556.38
2023-03-27T03:22:40.022Z,95555.22
2023-03-27T03:23:41.594Z,95562.16
2023-03-27T03:25:00.168Z,95559.81
2023-03-27T03:26:03.091Z,95556.78
2023-03-27T03:27:05.734Z,95556.78
2023-03-27T03:28:09.792Z,95558.75
2023-03-27T03:29:12.955Z,95570.63
2023-03-27T03:30:17.018Z,95569.09
2023-03-27T03:31:19.290Z,95564.06
2023-03-27T03:32:21.035Z,95560.59
2023-03-27T03:33:22.687Z,95562.16
2023-03-27T03:34:28.642Z,95558.31
2023-03-27T03:35:30.353Z,95562.94
2023-03-27T03:36:33.233Z,95555.22
2023-03-27T03:37:39.457Z,95560.56
2023-03-27T03:38:46.170Z,95557.88
2023-03-27T03:39:48.340Z,95558.56
2023-03-27T03:40:52.126Z,95554.03
2023-03-27T03:41:54.208Z,95560.94
2023-03-27T03:42:55.936Z,95560.22
2023-03-27T03:43:57.446Z,95560.94
2023-03-27T03:44:58.953Z,95562.06
2023-03-27T03:46:00.834Z,95561.34
2023-03-27T03:47:02.572Z,95559.38
2023-03-27T03:48:04.201Z,95559.81
2023-03-27T03:49:06.608Z,95557.13
2023-03-27T03:50:08.617Z,95553.69
2023-03-27T03:51:10.215Z,95555.22
2023-03-27T03:52:11.853Z,95549.84
2023-03-27T03:53:15.427Z,95548.66
2023-03-27T03:54:17.009Z,95549.81
2023-03-27T03:55:18.567Z,95552.06
2023-03-27T03:56:20.210Z,95535.16
2023-03-27T03:57:21.721Z,95533.59
2023-03-27T03:58:34.761Z,95541.25
2023-03-27T03:59:36.818Z,95537.75
2023-03-27T04:00:39.919Z,95540.44
2023-03-27T04:01:41.630Z,95537.41
2023-03-27T04:02:43.696Z,95537.03
2023-03-27T04:03:45.536Z,95536.22
2023-03-27T04:04:47.241Z,95536.59
2023-03-27T04:05:48.932Z,95545.78
2023-03-27T04:06:51.076Z,95545.78
2023-03-27T04:07:52.728Z,95537.31
2023-03-27T04:08:54.284Z,95527.31
2023-03-27T04:09:55.900Z,95538.06
2023-03-27T04:10:57.678Z,95537.28
2023-03-27T04:11:59.694Z,95523.47
2023-03-27T04:13:01.612Z,95530.34
2023-03-27T04:14:03.204Z,95535.69
2023-03-27T04:15:05.506Z,95542.59
2023-03-27T04:16:08.219Z,95526.47
2023-03-27T04:17:10.228Z,95531.50
2023-03-27T04:18:11.860Z,95524.22
2023-03-27T04:19:13.597Z,95525.75
2023-03-27T04:20:15.642Z,95519.25
2023-03-27T04:21:17.659Z,95521.19
2023-03-27T04:22:19.251Z,95525.78
2023-03-27T04:23:20.767Z,95522.75
2023-03-27T04:24:24.079Z,95528.50
2023-03-27T04:25:26.416Z,95525.09
2023-03-27T04:26:29.714Z,95512.81
2023-03-27T04:27:31.652Z,95512.47
2023-03-27T04:28:34.258Z,95514.38
2023-03-27T04:29:36.282Z,95513.66
2023-03-27T04:30:38.772Z,95516.34
2023-03-27T04:31:40.449Z,95519.03
2023-03-27T04:32:42.153Z,95508.69
2023-03-27T04:33:46.436Z,95514.47
2023-03-27T04:34:50.344Z,95509.09
2023-03-27T04:36:05.367Z,95504.84
2023-03-27T04:37:08.564Z,95502.19
2023-03-27T04:38:10.249Z,95506.00
2023-03-27T04:39:11.987Z,95504.53
2023-03-27T04:40:16.021Z,95496.13
2023-03-27T04:41:17.984Z,95503.06
2023-03-27T04:42:23.473Z,95497.72
2023-03-27T04:43:26.207Z,95498.13
2023-03-27T04:44:27.778Z,95502.44
2023-03-27T04:45:29.395Z,95502.44
2023-03-27T04:46:31.327Z,95504.72
2023-03-27T04:47:37.787Z,95503.28
2023-03-27T04:48:39.565Z,95504.09
2023-03-27T04:49:43.051Z,95511.00
2023-03-27T04:50:49.290Z,95507.97
2023-03-27T04:51:51.272Z,95512.63
2023-03-27T04:52:58.554Z,95511.50
2023-03-27T04:54:00.143Z,95508.09
2023-03-27T04:55:02.154Z,95515.72
2023-03-27T04:56:05.514Z,95518.78
2023-03-27T04:57:07.617Z,95526.44
2023-03-27T04:58:09.224Z,95529.41
2023-03-27T04:59:10.750Z,95531.38
2023-03-27T05:00:19.793Z,95531.81
2023-03-27T05:01:22.797Z,95533.38
2023-03-27T05:02:26.604Z,95533.38
2023-03-27T05:03:28.562Z,95535.34
2023-03-27T05:04:32.029Z,95537.66
2023-03-27T05:05:34.766Z,95528.84
2023-03-27T05:06:37.443Z,95525.06
2023-03-27T05:07:40.258Z,95524.28
2023-03-27T05:08:41.807Z,95526.16
2023-03-27T05:09:43.389Z,95534.19
2023-03-27T05:10:46.495Z,95535.25
2023-03-27T05:11:50.227Z,95535.53
2023-03-27T05:12:54.425Z,95526.25
2023-03-27T05:13:56.824Z,95530.06
2023-03-27T05:14:59.300Z,95537.03
2023-03-27T05:16:01.872Z,95535.25
2023-03-27T05:17:03.551Z,95536.47
2023-03-27T05:18:07.209Z,95538.81
2023-03-27T05:19:09.391Z,95527.31
2023-03-27T05:20:14.712Z,95529.97
2023-03-27T05:21:16.791Z,95533.34
2023-03-27T05:22:18.346Z,95526.00
2023-03-27T05:23:19.918Z,95523.31
2023-03-27T05:24:21.493Z,95519.44
2023-03-27T05:25:23.488Z,95512.47
2023-03-27T05:26:25.043Z,95519.06
2023-03-27T05:27:26.547Z,95520.19
2023-03-27T05:28:29.349Z,95523.25
2023-03-27T05:29:31.057Z,95522.13
2023-03-27T05:30:48.805Z,95518.31
2023-03-27T05:31:50.560Z,95519.44
2023-03-27T05:32:53.592Z,95512.56
2023-03-27T05:33:55.359Z,95508.31
2023-03-27T05:34:56.882Z,95509.47
2023-03-27T05:35:58.698Z,95507.19
2023-03-27T05:37:05.749Z,95501.06
2023-03-27T05:38:08.264Z,95501.09
2023-03-27T05:39:09.815Z,95503.44
2023-03-27T05:40:11.680Z,95502.69
2023-03-27T05:41:15.878Z,95507.31
2023-03-27T05:42:17.492Z,95507.66
2023-03-27T05:43:20.471Z,95505.00
2023-03-27T05:44:23.568Z,95497.38
2023-03-27T05:45:26.134Z,95495.47
2023-03-27T05:46:27.798Z,95491.66
2023-03-27T05:47:29.371Z,95485.47
2023-03-27T05:48:31.016Z,95488.91
2023-03-27T05:49:34.169Z,95477.75
2023-03-27T05:50:35.992Z,95475.06
2023-03-27T05:51:37.523Z,95478.16
2023-03-27T05:52:39.109Z,95475.88
2023-03-27T05:53:40.708Z,95469.31
2023-03-27T05:54:42.267Z,95468.94
2023-03-27T05:55:44.347Z,95465.50
2023-03-27T05:56:46.611Z,95462.06
2023-03-27T05:57:48.209Z,95469.31
2023-03-27T05:58:49.744Z,95454.25
2023-03-27T05:59:51.300Z,95455.78
2023-03-27T06:00:52.892Z,95449.22
2023-03-27T06:01:54.541Z,95445.81
2023-03-27T06:03:02.493Z,95443.16
2023-03-27T06:04:04.510Z,95437.41
2023-03-27T06:05:10.630Z,95430.47
2023-03-27T06:06:12.827Z,95422.38
2023-03-27T06:07:14.968Z,95416.66
2023-03-27T06:08:17.005Z,95415.19
2023-03-27T06:09:18.577Z,95414.41
2023-03-27T06:10:23.169Z,95408.66
2023-03-27T06:11:25.116Z,95404.84
2023-03-27T06:12:26.674Z,95395.97
2023-03-27T06:13:28.609Z,95395.97
2023-03-27T06:14:30.429Z,95375.22
2023-03-27T06:15:33.684Z,95356.81
2023-03-27T06:16:35.559Z,95349.13
2023-03-27T06:17:40.225Z,95348.75
2023-03-27T06:18:41.850Z,95333.00
2023-03-27T06:19:43.442Z,95321.88
2023-03-27T06:20:44.987Z,95310.72
2023-03-27T06:21:46.947Z,95311.53
2023-03-27T06:22:55.616Z,95310.75
2023-03-27T06:23:57.230Z,95295.38
2023-03-27T06:24:58.763Z,95308.44
2023-03-27T06:26:00.375Z,95306.50
2023-03-27T06:27:02.937Z,95312.28
2023-03-27T06:28:08.114Z,95299.97
2023-03-27T06:29:09.657Z,95302.28
2023-03-27T06:30:13.553Z,95295.38
2023-03-27T06:31:15.210Z,95289.22
2023-03-27T06:32:17.059Z,95280.75
2023-03-27T06:33:18.605Z,95270.38
2023-03-27T06:34:20.202Z,95278.44
2023-03-27T06:35:21.940Z,95263.81
2023-03-27T06:36:24.991Z,95273.47
2023-03-27T06:37:26.565Z,95260.03
2023-03-27T06:38:32.134Z,95262.31
2023-03-27T06:39:33.801Z,95270.03
2023-03-27T06:40:35.518Z,95266.13
2023-03-27T06:41:37.081Z,95260.41
2023-03-27T06:42:38.586Z,95255.38
2023-03-27T06:43:40.189Z,95241.16
2023-03-27T06:44:41.678Z,95236.94
2023-03-27T06:45:46.194Z,95251.19
2023-03-27T06:46:47.976Z,95266.56
2023-03-27T06:47:54.818Z,95266.94
2023-03-27T06:48:57.156Z,95267.72
2023-03-27T06:49:58.699Z,95261.94
2023-03-27T06:51:00.410Z,95261.94
2023-03-27T06:52:02.924Z,95265.78
2023-03-27T06:53:10.056Z,95263.47
2023-03-27T06:54:17.474Z,95260.78
2023-03-27T06:55:20.392Z,95262.31
2023-03-27T06:56:21.943Z,95254.63
2023-03-27T06:57:23.494Z,95251.16
2023-03-27T06:58:25.233Z,95249.63
2023-03-27T06:59:26.863Z,95243.88
2023-03-27T07:00:31.597Z,95246.16
2023-03-27T07:01:33.457Z,95239.25
2023-03-27T07:02:35.083Z,95237.69
2023-03-27T07:03:36.653Z,95246.16
2023-03-27T07:04:38.420Z,95242.31
2023-03-27T07:05:40.898Z,95238.84
2023-03-27T07:06:43.188Z,95238.47
2023-03-27T07:07:45.153Z,95216.97
2023-03-27T07:08:48.918Z,95227.69
2023-03-27T07:09:50.873Z,95228.41
2023-03-27T07:11:07.962Z,95222.22
2023-03-27T07:12:12.780Z,95216.09
2023-03-27T07:13:15.662Z,95222.25
2023-03-27T07:14:17.213Z,95220.38
2023-03-27T07:15:20.375Z,95227.69
2023-03-27T07:16:21.982Z,95227.66
2023-03-27T07:17:25.316Z,95238.38
2023-03-27T07:18:26.935Z,95222.97
2023-03-27T07:19:28.562Z,95225.94
2023-03-27T07:20:31.727Z,95220.50
2023-03-27T07:21:33.290Z,95216.63
2023-03-27T07:22:34.849Z,95228.94
2023-03-27T07:23:36.794Z,95225.91
2023-03-27T07:24:38.436Z,95235.19
2023-03-27T07:25:40.622Z,95241.34
2023-03-27T07:26:42.136Z,95235.94
2023-03-27T07:27:43.722Z,95242.88
2023-03-27T07:28:45.387Z,95244.78
2023-03-27T07:29:47.208Z,95255.16
2023-03-27T07:30:48.786Z,95255.94
2023-03-27T07:32:55.194Z,95246.94
2023-03-27T07:33:57.986Z,95252.66
2023-03-27T07:34:59.617Z,95253.81
2023-03-27T07:36:06.783Z,95250.34
2023-03-27T07:37:08.450Z,95257.28
2023-03-27T07:38:11.563Z,95261.50
2023-03-27T07:39:14.281Z,95262.66
2023-03-27T07:40:29.534Z,95249.56
2023-03-27T07:41:35.031Z,95261.50
2023-03-27T07:42:36.648Z,95262.66
2023-03-27T07:43:38.179Z,95256.50
2023-03-27T07:44:39.745Z,95259.56
2023-03-27T07:45:42.094Z,95247.25
2023-03-27T07:46:43.755Z,95254.97
2023-03-27T07:47:46.938Z,95255.75
2023-03-27T07:48:49.129Z,95255.03
2023-03-27T07:49:51.042Z,95245.81
2023-03-27T07:50:56.114Z,95242.69
2023-03-27T07:52:00.534Z,95243.47
2023-03-27T07:53:02.079Z,95240.78
2023-03-27T07:54:04.514Z,95240.78
2023-03-27T07:55:07.756Z,95251.56
2023-03-27T07:56:10.565Z,95243.47
2023-03-27T07:57:13.821Z,95244.97
2023-03-27T07:58:15.565Z,95244.97
2023-03-27T07:59:17.369Z,95255.03
2023-03-27T08:00:19.941Z,95250.44
2023-03-27T08:01:21.564Z,95248.09
2023-03-27T08:02:25.027Z,95248.47
2023-03-27T08:03:28.230Z,95237.31
2023-03-27T08:04:30.062Z,95230.00
2023-03-27T08:05:31.649Z,95233.81
2023-03-27T08:06:33.345Z,95233.44
2023-03-27T08:07:36.252Z,95227.25
2023-03-27T08:08:37.937Z,95221.88
2023-03-27T08:09:39.575Z,95223.78
2023-03-27T08:10:41.578Z,95224.19
2023-03-27T08:11:44.296Z,95218.75
2023-03-27T08:12:45.941Z,95207.19
2023-03-27T08:13:47.713Z,95208.72
2023-03-27T08:14:49.292Z,95203.72
2023-03-27T08:15:51.345Z,95197.91
2023-03-27T08:16:54.359Z,95200.97
2023-03-27T08:17:59.426Z,95204.38
2023-03-27T08:19:03.077Z,95210.47
2023-03-27T08:20:09.367Z,95215.44
2023-03-27T08:21:11.799Z,95207.25
2023-03-27T08:22:13.989Z,95202.19
2023-03-27T08:23:16.402Z,95193.31
2023-03-27T08:24:18.005Z,95185.97
2023-03-27T08:25:22.617Z,95202.88
2023-03-27T08:26:26.584Z,95184.38
2023-03-27T08:27:28.149Z,95191.31
2023-03-27T08:28:34.416Z,95194.06
2023-03-27T08:29:35.997Z,95202.16
2023-03-27T08:30:37.669Z,95203.31
2023-03-27T08:31:39.500Z,95201.38
2023-03-27T08:32:42.211Z,95196.75
2023-03-27T08:33:43.858Z,95204.56
2023-03-27T08:34:45.848Z,95206.91
2023-03-27T08:35:48.808Z,95214.22
2023-03-27T08:36:50.425Z,95220.78
2023-03-27T08:37:52.823Z,95211.56
2023-03-27T08:38:55.393Z,95215.41
2023-03-27T08:39:58.985Z,95212.72
2023-03-27T08:41:03.629Z,95216.63
2023-03-27T08:42:08.623Z,95216.63
2023-03-27T08:43:16.864Z,95211.63
2023-03-27T08:44:21.359Z,95216.28
2023-03-27T08:45:28.108Z,95222.44
2023-03-27T08:46:37.558Z,95220.09
2023-03-27T08:47:44.659Z,95221.63
2023-03-27T08:48:53.957Z,95227.03
2023-03-27T08:50:00.621Z,95223.94
2023-03-27T08:51:06.929Z,95220.84
2023-03-27T08:52:22.668Z,95215.81
2023-03-27T08:54:00.315Z,95217.78
2023-03-27T08:55:33.729Z,95214.69
2023-03-27T08:56:37.424Z,95216.97
2023-03-27T08:57:39.061Z,95212.31
2023-03-27T08:58:41.738Z,95215.44
2023-03-27T08:59:43.363Z,95210.47
2023-03-27T09:00:47.445Z,95205.06
2023-03-27T09:02:10.804Z,95202.28
2023-03-27T09:03:43.595Z,95199.22
2023-03-27T09:05:01.685Z,95193.00
2023-03-27T09:06:11.620Z,95195.69
2023-03-27T09:07:19.878Z,95189.53
2023-03-27T09:08:49.672Z,95183.63
2023-03-27T09:10:00.167Z,95185.09
2023-03-27T09:11:52.079Z,95182.44
2023-03-27T09:12:54.517Z,95188.75
2023-03-27T09:13:56.582Z,95173.03
2023-03-27T09:15:09.787Z,95179.63
2023-03-27T09:16:19.764Z,95184.59
2023-03-27T09:17:27.254Z,95172.94
2023-03-27T09:18:54.265Z,95162.06
2023-03-27T09:20:18.269Z,95160.50
2023-03-27T09:21:35.060Z,95153.56
2023-03-27T09:22:45.919Z,95167.06
2023-03-27T09:23:48.777Z,95170.53
2023-03-27T09:24:54.245Z,95161.38
2023-03-27T09:26:01.124Z,95152.97
2023-03-27T09:27:27.425Z,95155.66
2023-03-27T09:28:35.838Z,95148.31
2023-03-27T09:29:41.423Z,95140.63
2023-03-27T09:30:43.021Z,95156.06
2023-03-27T09:31:53.689Z,95140.66
2023-03-27T09:33:03.627Z,95135.69
2023-03-27T09:34:09.020Z,95124.16
2023-03-27T09:35:20.339Z,95132.25
2023-03-27T09:36:24.680Z,95141.53
2023-03-27T09:37:28.139Z,95122.63
2023-03-27T09:38:37.545Z,95129.19
2023-03-27T09:39:44.132Z,95118.00
2023-03-27T09:40:54.645Z,95126.06
2023-03-27T09:42:07.426Z,95134.13
2023-03-27T09:43:17.586Z,95151.47
2023-03-27T09:44:34.417Z,95144.50
2023-03-27T09:45:39.288Z,95122.53
2023-03-27T09:46:45.819Z,95124.47
2023-03-27T09:48:12.065Z,95114.41
2023-03-27T09:49:16.237Z,95107.41
2023-03-27T09:50:41.450Z,95139.69
2023-03-27T09:51:48.757Z,95128.56
2023-03-27T09:52:52.333Z,95129.72
2023-03-27T09:53:58.786Z,95124.25
2023-03-27T09:55:00.719Z,95133.16
2023-03-27T09:56:06.305Z,95123.16
2023-03-27T09:57:12.624Z,95108.06
2023-03-27T09:58:41.061Z,95123.50
2023-03-27T10:00:01.233Z,95113.53
2023-03-27T10:01:36.129Z,95122.41
2023-03-27T10:02:37.882Z,95124.31
2023-03-27T10:03:49.036Z,95112.00
2023-03-27T10:05:11.939Z,95105.81
2023-03-27T10:06:16.556Z,95114.25
2023-03-27T10:07:25.754Z,95128.56
2023-03-27T10:08:40.778Z,95133.22
2023-03-27T10:09:42.852Z,95112.06
2023-03-27T10:10:45.937Z,95111.72
2023-03-27T10:11:50.822Z,95105.94
2023-03-27T10:12:58.335Z,95107.09
2023-03-27T10:14:02.177Z,95104.38
2023-03-27T10:15:06.952Z,95113.69
2023-03-27T10:16:08.996Z,95103.66
2023-03-27T10:17:33.250Z,95113.69
2023-03-27T10:18:43.462Z,95096.75
2023-03-27T10:19:47.237Z,95097.56
2023-03-27T10:20:54.299Z,95104.50
2023-03-27T10:22:00.538Z,95100.63
2023-03-27T10:23:22.751Z,95106.03
2023-03-27T10:24:33.451Z,95110.28
2023-03-27T10:25:39.376Z,95114.47
2023-03-27T10:26:41.034Z,95109.06
2023-03-27T10:27:43.818Z,95121.41
2023-03-27T10:28:52.641Z,95117.97
2023-03-27T10:29:54.207Z,95119.84
2023-03-27T10:31:24.070Z,95117.53
2023-03-27T10:32:52.871Z,95120.63
2023-03-27T10:33:54.429Z,95139.56
2023-03-27T10:34:58.279Z,95118.38
2023-03-27T10:36:00.582Z,95111.44
2023-03-27T10:37:17.629Z,95116.81
2023-03-27T10:38:22.550Z,95115.19
2023-03-27T10:39:35.073Z,95112.16
2023-03-27T10:40:39.549Z,95105.94
2023-03-27T10:41:41.402Z,95108.28
2023-03-27T10:42:43.155Z,95102.50
2023-03-27T10:43:47.227Z,95102.84
2023-03-27T10:44:49.405Z,95098.25
2023-03-27T10:45:58.986Z,95095.09
2023-03-27T10:47:01.000Z,95094.25
2023-03-27T10:48:07.009Z,95080.44
2023-03-27T10:49:32.459Z,95088.84
2023-03-27T10:50:53.505Z,95075.75
2023-03-27T10:52:20.387Z,95069.19
2023-03-27T10:53:33.258Z,95082.25
2023-03-27T10:54:51.286Z,95090.34
2023-03-27T10:56:13.864Z,95099.66
2023-03-27T10:57:24.278Z,95090.41
2023-03-27T10:58:35.285Z,95103.50
2023-03-27T10:59:57.030Z,95105.06
2023-03-27T11:01:11.605Z,95107.41
2023-03-27T11:02:42.146Z,95113.97
2023-03-27T11:03:58.491Z,95113.25
2023-03-27T11:05:08.284Z,95125.19
2023-03-27T11:06:16.549Z,95125.53
2023-03-27T11:07:27.262Z,95142.13
2023-03-27T11:08:36.239Z,95131.25
2023-03-27T11:09:47.345Z,95125.78
2023-03-27T11:10:50.215Z,95131.59
2023-03-27T11:11:57.758Z,95124.75
2023-03-27T11:13:17.585Z,95131.31
2023-03-27T11:14:38.826Z,95121.69
2023-03-27T11:15:46.100Z,95108.56
2023-03-27T11:16:58.710Z,95105.91
2023-03-27T11:18:06.998Z,95107.47
2023-03-27T11:19:11.422Z,95110.97
2023-03-27T11:20:30.212Z,95118.31
2023-03-27T11:21:44.129Z,95111.38
2023-03-27T11:22:55.062Z,95101.34
2023-03-27T11:23:58.722Z,95110.16
2023-03-27T11:25:04.258Z,95103.97
2023-03-27T11:26:07.578Z,95105.88
2023-03-27T11:27:23.386Z,95111.16
2023-03-27T11:28:43.528Z,95111.78
2023-03-27T11:30:30.267Z,95116.28
2023-03-27T11:31:44.245Z,95110.16
2023-03-27T11:32:58.782Z,95123.00
2023-03-27T11:34:32.517Z,95132.72
2023-03-27T11:35:39.428Z,95119.50
2023-03-27T11:36:52.034Z,95132.47
2023-03-27T11:38:03.524Z,95136.31
2023-03-27T11:39:23.670Z,95152.22
2023-03-27T11:40:46.566Z,95151.59
2023-03-27T11:41:57.820Z,95158.19
2023-03-27T11:42:59.931Z,95156.69
2023-03-27T11:44:01.618Z,95157.06
2023-03-27T11:45:07.328Z,95159.41
2023-03-27T11:46:08.968Z,95164.50
2023-03-27T11:47:32.567Z,95166.44
2023-03-27T11:49:15.018Z,95165.34
2023-03-27T11:50:25.090Z,95180.75
2023-03-27T11:51:51.214Z,95178.03
2023-03-27T11:53:12.248Z,95182.63
2023-03-27T11:54:41.428Z,95188.81
2023-03-27T11:56:04.952Z,95189.19
2023-03-27T11:57:22.136Z,95193.06
2023-03-27T11:58:40.491Z,95194.59
2023-03-27T11:59:48.529Z,95201.97
2023-03-27T12:00:58.907Z,95203.91
2023-03-27T12:02:21.381Z,95208.47
2023-03-27T12:03:43.658Z,95215.41
2023-03-27T12:04:52.255Z,95211.59
2023-03-27T12:06:16.403Z,95223.88
2023-03-27T12:07:59.365Z,95226.19
2023-03-27T12:09:20.792Z,95223.91
2023-03-27T12:10:29.146Z,95236.19
2023-03-27T12:11:31.254Z,95244.25
2023-03-27T12:12:46.612Z,95244.63
2023-03-27T12:14:18.432Z,95261.16
2023-03-27T12:15:42.649Z,95271.50
2023-03-27T12:16:56.393Z,95283.78
2023-03-27T12:18:06.947Z,95275.31
2023-03-27T12:19:31.195Z,95289.09
2023-03-27T12:20:43.515Z,95297.50
2023-03-27T12:22:25.555Z,95310.53
2023-03-27T12:24:02.359Z,95311.22
2023-03-27T12:25:40.793Z,95337.53
2023-03-27T12:26:48.243Z,95344.34
2023-03-27T12:28:01.338Z,95350.81
2023-03-27T12:29:29.048Z,95362.22
2023-03-27T12:30:41.376Z,95359.81
2023-03-27T12:32:14.159Z,95385.84
2023-03-27T12:33:32.826Z,95374.25
2023-03-27T12:34:42.904Z,95386.50
2023-03-27T12:35:51.948Z,95386.41
2023-03-27T12:36:53.948Z,95386.38
2023-03-27T12:38:18.773Z,95388.56
2023-03-27T12:39:24.506Z,95401.59
2023-03-27T12:40:52.337Z,95408.91
2023-03-27T12:41:53.869Z,95408.56
2023-03-27T12:43:06.002Z,95411.31
2023-03-27T12:44:13.364Z,95409.44
2023-03-27T12:45:23.865Z,95406.41
2023-03-27T12:46:26.508Z,95404.88
2023-03-27T12:47:29.696Z,95400.28
2023-03-27T12:48:31.324Z,95398.81
2023-03-27T12:50:00.243Z,95391.91
2023-03-27T12:51:12.854Z,95396.91
2023-03-27T12:52:15.113Z,95386.59
2023-03-27T12:53:39.989Z,95381.59
2023-03-27T12:55:07.187Z,95380.72
2023-03-27T12:56:17.716Z,95376.34
2023-03-27T12:57:22.381Z,95360.03
2023-03-27T12:58:33.891Z,95351.41
2023-03-27T12:59:54.903Z,95340.47
2023-03-27T13:01:03.037Z,95318.06
2023-03-27T13:02:04.633Z,95324.56
2023-03-27T13:03:52.756Z,95327.13
2023-03-27T13:05:24.018Z,95337.94
2023-03-27T13:06:43.372Z,95321.31
2023-03-27T13:07:56.162Z,95335.50
2023-03-27T13:09:09.671Z,95325.16
2023-03-27T13:10:23.532Z,95334.38
2023-03-27T13:11:38.368Z,95335.25
2023-03-27T13:13:04.552Z,95336.53
2023-03-27T13:14:11.877Z,95339.63
2023-03-27T13:15:31.730Z,95327.34
2023-03-27T13:17:11.549Z,95317.97
2023-03-27T13:18:38.269Z,95312.94